sensor_id;sensor_type;location;lat;lon;timestamp;P1;durP1;ratioP1;P2;durP2;ratioP2
2912;SDS011;1466;48.778;9.166;2022-11-11T00:01:04;33.67;;;14.60;;
2912;SDS011;1466;48.778;9.166;2022-11-11T00:03:40;45.58;;;28.83;;
2912;SDS011;1466;48.778;9.166;2022-11-11T00:06:16;38.75;;;21.73;;
2912;SDS011;1466;48.778;9.166;2022-11-11T00:08:41;33.00;;;16.52;;
2912;SDS011;1466;48.778;9.166;2022-11-11T00:11:11;43.67;;;22.95;;
2912;SDS011;1466;48.778;9.166;2022-11-11T00:13:38;49.67;;;27.60;;
2912;SDS011;1466;48.778;9.166;2022-11-11T00:16:14;42.05;;;26.30;;
2912;SDS011;1466;48.778;9.166;2022-11-11T00:18:41;22.95;;;13.27;;
2912;SDS011;1466;48.778;9.166;2022-11-11T00:21:27;19.13;;;11.68;;
2912;SDS011;1466;48.778;9.166;2022-11-11T00:24:25;39.55;;;21.92;;
2912;SDS011;1466;48.778;9.166;2022-11-11T00:27:11;32.33;;;18.10;;
2912;SDS011;1466;48.778;9.166;2022-11-11T00:29:38;31.35;;;15.90;;
2912;SDS011;1466;48.778;9.166;2022-11-11T00:32:04;51.07;;;27.37;;
2912;SDS011;1466;48.778;9.166;2022-11-11T00:34:50;52.17;;;28.40;;
2912;SDS011;1466;48.778;9.166;2022-11-11T00:37:35;28.38;;;12.20;;
2912;SDS011;1466;48.778;9.166;2022-11-11T00:40:01;56.50;;;23.33;;
2912;SDS011;1466;48.778;9.166;2022-11-11T00:42:26;34.07;;;18.47;;
2912;SDS011;1466;48.778;9.166;2022-11-11T00:44:52;33.13;;;18.70;;
2912;SDS011;1466;48.778;9.166;2022-11-11T00:47:18;43.17;;;23.05;;
2912;SDS011;1466;48.778;9.166;2022-11-11T00:50:03;91.72;;;46.60;;
2912;SDS011;1466;48.778;9.166;2022-11-11T00:52:49;36.58;;;19.58;;
2912;SDS011;1466;48.778;9.166;2022-11-11T00:55:15;16.50;;;10.03;;
2912;SDS011;1466;48.778;9.166;2022-11-11T00:57:40;15.20;;;7.80;;
2912;SDS011;1466;48.778;9.166;2022-11-11T01:00:06;13.20;;;7.37;;
2912;SDS011;1466;48.778;9.166;2022-11-11T01:02:32;19.45;;;7.50;;
2912;SDS011;1466;48.778;9.166;2022-11-11T01:04:58;18.20;;;8.03;;
2912;SDS011;1466;48.778;9.166;2022-11-11T01:07:23;21.07;;;7.50;;
2912;SDS011;1466;48.778;9.166;2022-11-11T01:09:49;41.20;;;12.47;;
2912;SDS011;1466;48.778;9.166;2022-11-11T01:12:15;47.27;;;16.23;;
2912;SDS011;1466;48.778;9.166;2022-11-11T01:14:40;56.77;;;15.07;;
2912;SDS011;1466;48.778;9.166;2022-11-11T01:17:06;25.40;;;9.00;;
2912;SDS011;1466;48.778;9.166;2022-11-11T01:19:33;12.93;;;7.35;;
2912;SDS011;1466;48.778;9.166;2022-11-11T01:21:59;24.10;;;7.70;;
2912;SDS011;1466;48.778;9.166;2022-11-11T01:24:25;10.87;;;6.63;;
2912;SDS011;1466;48.778;9.166;2022-11-11T01:26:50;20.73;;;6.50;;
2912;SDS011;1466;48.778;9.166;2022-11-11T01:29:16;11.20;;;5.90;;
2912;SDS011;1466;48.778;9.166;2022-11-11T01:31:42;19.40;;;6.72;;
2912;SDS011;1466;48.778;9.166;2022-11-11T01:34:08;18.63;;;6.70;;
2912;SDS011;1466;48.778;9.166;2022-11-11T01:36:33;13.37;;;6.60;;
2912;SDS011;1466;48.778;9.166;2022-11-11T01:38:59;21.40;;;6.90;;
2912;SDS011;1466;48.778;9.166;2022-11-11T01:41:27;16.10;;;7.03;;
2912;SDS011;1466;48.778;9.166;2022-11-11T01:46:45;9.73;;;5.80;;
2912;SDS011;1466;48.778;9.166;2022-11-11T01:49:27;9.25;;;5.95;;
2912;SDS011;1466;48.778;9.166;2022-11-11T02:00:10;11.38;;;6.72;;
2912;SDS011;1466;48.778;9.166;2022-11-11T02:02:52;16.10;;;7.15;;
2912;SDS011;1466;48.778;9.166;2022-11-11T02:05:21;16.05;;;6.80;;
2912;SDS011;1466;48.778;9.166;2022-11-11T02:08:07;13.23;;;6.45;;
2912;SDS011;1466;48.778;9.166;2022-11-11T02:10:43;14.38;;;7.30;;
2912;SDS011;1466;48.778;9.166;2022-11-11T02:13:11;14.48;;;7.25;;
2912;SDS011;1466;48.778;9.166;2022-11-11T02:15:56;10.68;;;5.78;;
2912;SDS011;1466;48.778;9.166;2022-11-11T02:18:23;21.13;;;7.10;;
2912;SDS011;1466;48.778;9.166;2022-11-11T02:20:49;15.07;;;6.45;;
2912;SDS011;1466;48.778;9.166;2022-11-11T02:25:51;23.92;;;8.32;;
2912;SDS011;1466;48.778;9.166;2022-11-11T02:28:19;12.70;;;6.47;;
2912;SDS011;1466;48.778;9.166;2022-11-11T02:30:47;14.35;;;6.70;;
2912;SDS011;1466;48.778;9.166;2022-11-11T02:33:12;16.67;;;7.13;;
2912;SDS011;1466;48.778;9.166;2022-11-11T02:35:42;11.00;;;6.27;;
2912;SDS011;1466;48.778;9.166;2022-11-11T02:38:10;14.73;;;6.57;;
2912;SDS011;1466;48.778;9.166;2022-11-11T02:40:38;16.00;;;6.35;;
2912;SDS011;1466;48.778;9.166;2022-11-11T02:43:26;11.57;;;6.70;;
2912;SDS011;1466;48.778;9.166;2022-11-11T02:45:53;24.33;;;7.57;;
2912;SDS011;1466;48.778;9.166;2022-11-11T02:48:18;21.20;;;7.33;;
2912;SDS011;1466;48.778;9.166;2022-11-11T02:50:44;19.87;;;7.17;;
2912;SDS011;1466;48.778;9.166;2022-11-11T02:53:09;12.13;;;6.30;;
2912;SDS011;1466;48.778;9.166;2022-11-11T02:55:35;11.40;;;5.97;;
2912;SDS011;1466;48.778;9.166;2022-11-11T02:58:01;20.63;;;6.97;;
2912;SDS011;1466;48.778;9.166;2022-11-11T03:00:27;14.43;;;6.72;;
2912;SDS011;1466;48.778;9.166;2022-11-11T03:02:53;17.03;;;6.40;;
2912;SDS011;1466;48.778;9.166;2022-11-11T03:05:18;20.13;;;6.07;;
2912;SDS011;1466;48.778;9.166;2022-11-11T03:07:44;19.43;;;6.43;;
2912;SDS011;1466;48.778;9.166;2022-11-11T03:10:09;13.80;;;5.50;;
2912;SDS011;1466;48.778;9.166;2022-11-11T03:12:35;15.73;;;6.80;;
2912;SDS011;1466;48.778;9.166;2022-11-11T03:15:01;22.80;;;7.10;;
2912;SDS011;1466;48.778;9.166;2022-11-11T03:17:27;13.10;;;6.20;;
2912;SDS011;1466;48.778;9.166;2022-11-11T03:20:11;16.23;;;5.93;;
2912;SDS011;1466;48.778;9.166;2022-11-11T03:23:03;15.60;;;5.55;;
2912;SDS011;1466;48.778;9.166;2022-11-11T03:25:28;11.43;;;5.50;;
2912;SDS011;1466;48.778;9.166;2022-11-11T03:28:21;13.70;;;6.80;;
2912;SDS011;1466;48.778;9.166;2022-11-11T03:30:49;26.33;;;7.93;;
2912;SDS011;1466;48.778;9.166;2022-11-11T03:33:15;14.52;;;7.28;;
2912;SDS011;1466;48.778;9.166;2022-11-11T03:35:42;20.23;;;7.30;;
2912;SDS011;1466;48.778;9.166;2022-11-11T03:38:10;21.55;;;7.55;;
2912;SDS011;1466;48.778;9.166;2022-11-11T03:40:43;11.38;;;5.15;;
2912;SDS011;1466;48.778;9.166;2022-11-11T03:43:10;12.57;;;6.35;;
2912;SDS011;1466;48.778;9.166;2022-11-11T03:45:36;14.60;;;6.88;;
2912;SDS011;1466;48.778;9.166;2022-11-11T03:48:02;12.83;;;6.10;;
2912;SDS011;1466;48.778;9.166;2022-11-11T03:50:29;12.48;;;5.45;;
2912;SDS011;1466;48.778;9.166;2022-11-11T03:52:55;19.53;;;7.20;;
2912;SDS011;1466;48.778;9.166;2022-11-11T03:55:20;12.73;;;5.63;;
2912;SDS011;1466;48.778;9.166;2022-11-11T03:57:46;10.20;;;5.87;;
2912;SDS011;1466;48.778;9.166;2022-11-11T04:00:12;19.97;;;7.03;;
2912;SDS011;1466;48.778;9.166;2022-11-11T04:02:40;11.30;;;6.03;;
2912;SDS011;1466;48.778;9.166;2022-11-11T04:05:24;10.55;;;6.60;;
2912;SDS011;1466;48.778;9.166;2022-11-11T04:08:10;13.43;;;6.60;;
2912;SDS011;1466;48.778;9.166;2022-11-11T04:10:56;19.13;;;7.90;;
2912;SDS011;1466;48.778;9.166;2022-11-11T04:13:23;14.27;;;6.97;;
2912;SDS011;1466;48.778;9.166;2022-11-11T04:16:08;14.60;;;7.05;;
2912;SDS011;1466;48.778;9.166;2022-11-11T04:18:34;15.57;;;7.60;;
2912;SDS011;1466;48.778;9.166;2022-11-11T04:21:19;17.17;;;7.72;;
2912;SDS011;1466;48.778;9.166;2022-11-11T04:24:04;15.52;;;7.68;;
2912;SDS011;1466;48.778;9.166;2022-11-11T04:26:50;19.63;;;8.30;;
2912;SDS011;1466;48.778;9.166;2022-11-11T04:29:18;13.43;;;7.70;;
2912;SDS011;1466;48.778;9.166;2022-11-11T04:31:53;17.90;;;7.47;;
2912;SDS011;1466;48.778;9.166;2022-11-11T04:34:37;14.40;;;7.20;;
2912;SDS011;1466;48.778;9.166;2022-11-11T04:37:04;13.93;;;6.25;;
2912;SDS011;1466;48.778;9.166;2022-11-11T04:39:29;14.13;;;6.43;;
2912;SDS011;1466;48.778;9.166;2022-11-11T04:42:13;16.38;;;6.53;;
2912;SDS011;1466;48.778;9.166;2022-11-11T04:44:39;13.23;;;6.43;;
2912;SDS011;1466;48.778;9.166;2022-11-11T04:47:23;15.93;;;6.60;;
2912;SDS011;1466;48.778;9.166;2022-11-11T04:49:48;18.47;;;7.33;;
2912;SDS011;1466;48.778;9.166;2022-11-11T04:52:14;14.70;;;7.00;;
2912;SDS011;1466;48.778;9.166;2022-11-11T04:54:52;19.85;;;7.47;;
2912;SDS011;1466;48.778;9.166;2022-11-11T04:57:41;22.83;;;9.13;;
2912;SDS011;1466;48.778;9.166;2022-11-11T05:00:08;23.95;;;9.23;;
2912;SDS011;1466;48.778;9.166;2022-11-11T05:02:36;29.85;;;10.32;;
2912;SDS011;1466;48.778;9.166;2022-11-11T05:05:21;18.50;;;8.73;;
2912;SDS011;1466;48.778;9.166;2022-11-11T05:07:47;14.80;;;8.45;;
2912;SDS011;1466;48.778;9.166;2022-11-11T05:10:31;10.88;;;7.10;;
2912;SDS011;1466;48.778;9.166;2022-11-11T05:12:56;15.27;;;8.30;;
2912;SDS011;1466;48.778;9.166;2022-11-11T05:15:42;17.50;;;8.63;;
2912;SDS011;1466;48.778;9.166;2022-11-11T05:18:26;13.68;;;7.72;;
2912;SDS011;1466;48.778;9.166;2022-11-11T05:21:21;14.45;;;7.78;;
2912;SDS011;1466;48.778;9.166;2022-11-11T05:23:51;24.38;;;9.90;;
2912;SDS011;1466;48.778;9.166;2022-11-11T05:26:35;17.30;;;8.07;;
2912;SDS011;1466;48.778;9.166;2022-11-11T05:29:01;23.13;;;9.77;;
2912;SDS011;1466;48.778;9.166;2022-11-11T05:31:27;19.70;;;7.80;;
2912;SDS011;1466;48.778;9.166;2022-11-11T05:33:53;22.88;;;9.73;;
2912;SDS011;1466;48.778;9.166;2022-11-11T05:36:19;17.70;;;8.40;;
2912;SDS011;1466;48.778;9.166;2022-11-11T05:38:45;27.73;;;9.87;;
2912;SDS011;1466;48.778;9.166;2022-11-11T05:41:10;15.93;;;8.20;;
2912;SDS011;1466;48.778;9.166;2022-11-11T05:43:36;21.63;;;9.43;;
2912;SDS011;1466;48.778;9.166;2022-11-11T05:46:02;31.37;;;10.30;;
2912;SDS011;1466;48.778;9.166;2022-11-11T05:48:29;21.27;;;8.80;;
2912;SDS011;1466;48.778;9.166;2022-11-11T05:50:58;11.85;;;7.60;;
2912;SDS011;1466;48.778;9.166;2022-11-11T05:53:24;16.90;;;8.82;;
2912;SDS011;1466;48.778;9.166;2022-11-11T05:55:49;24.10;;;9.27;;
2912;SDS011;1466;48.778;9.166;2022-11-11T05:58:16;15.25;;;8.65;;
2912;SDS011;1466;48.778;9.166;2022-11-11T06:00:42;22.08;;;8.85;;
2912;SDS011;1466;48.778;9.166;2022-11-11T06:03:08;39.70;;;12.10;;
2912;SDS011;1466;48.778;9.166;2022-11-11T06:05:34;15.00;;;8.40;;
2912;SDS011;1466;48.778;9.166;2022-11-11T06:08:00;27.98;;;9.75;;
2912;SDS011;1466;48.778;9.166;2022-11-11T06:10:26;22.83;;;8.47;;
2912;SDS011;1466;48.778;9.166;2022-11-11T06:12:55;23.27;;;9.30;;
2912;SDS011;1466;48.778;9.166;2022-11-11T06:15:33;17.98;;;8.30;;
2912;SDS011;1466;48.778;9.166;2022-11-11T06:18:01;17.08;;;8.52;;
2912;SDS011;1466;48.778;9.166;2022-11-11T06:20:27;26.50;;;9.05;;
2912;SDS011;1466;48.778;9.166;2022-11-11T06:22:53;17.77;;;8.98;;
2912;SDS011;1466;48.778;9.166;2022-11-11T06:25:25;22.30;;;9.68;;
2912;SDS011;1466;48.778;9.166;2022-11-11T06:28:14;16.90;;;7.72;;
2912;SDS011;1466;48.778;9.166;2022-11-11T06:30:41;19.35;;;9.32;;
2912;SDS011;1466;48.778;9.166;2022-11-11T06:33:08;26.75;;;10.10;;
2912;SDS011;1466;48.778;9.166;2022-11-11T06:35:37;26.30;;;10.10;;
2912;SDS011;1466;48.778;9.166;2022-11-11T06:38:04;27.15;;;9.02;;
2912;SDS011;1466;48.778;9.166;2022-11-11T06:40:31;23.30;;;9.20;;
2912;SDS011;1466;48.778;9.166;2022-11-11T06:42:57;17.65;;;8.07;;
2912;SDS011;1466;48.778;9.166;2022-11-11T06:45:24;20.27;;;7.95;;
2912;SDS011;1466;48.778;9.166;2022-11-11T06:47:51;20.10;;;9.40;;
2912;SDS011;1466;48.778;9.166;2022-11-11T06:50:17;21.70;;;8.67;;
2912;SDS011;1466;48.778;9.166;2022-11-11T06:52:43;25.90;;;8.77;;
2912;SDS011;1466;48.778;9.166;2022-11-11T06:55:08;15.63;;;6.80;;
2912;SDS011;1466;48.778;9.166;2022-11-11T06:57:34;32.05;;;11.27;;
2912;SDS011;1466;48.778;9.166;2022-11-11T07:00:00;24.03;;;9.93;;
2912;SDS011;1466;48.778;9.166;2022-11-11T07:02:27;43.00;;;10.82;;
2912;SDS011;1466;48.778;9.166;2022-11-11T07:04:53;24.00;;;9.00;;
2912;SDS011;1466;48.778;9.166;2022-11-11T07:07:18;18.70;;;8.40;;
2912;SDS011;1466;48.778;9.166;2022-11-11T07:09:44;19.10;;;8.40;;
2912;SDS011;1466;48.778;9.166;2022-11-11T07:12:09;30.50;;;9.67;;
2912;SDS011;1466;48.778;9.166;2022-11-11T07:14:35;22.10;;;8.70;;
2912;SDS011;1466;48.778;9.166;2022-11-11T07:17:00;22.30;;;9.57;;
2912;SDS011;1466;48.778;9.166;2022-11-11T07:19:26;22.80;;;9.20;;
2912;SDS011;1466;48.778;9.166;2022-11-11T07:21:51;21.33;;;8.33;;
2912;SDS011;1466;48.778;9.166;2022-11-11T07:24:17;30.80;;;10.90;;
2912;SDS011;1466;48.778;9.166;2022-11-11T07:26:42;24.53;;;9.13;;
2912;SDS011;1466;48.778;9.166;2022-11-11T07:29:08;22.20;;;9.07;;
2912;SDS011;1466;48.778;9.166;2022-11-11T07:31:34;26.93;;;8.63;;
2912;SDS011;1466;48.778;9.166;2022-11-11T07:33:59;35.07;;;10.77;;
2912;SDS011;1466;48.778;9.166;2022-11-11T07:36:25;22.20;;;9.30;;
2912;SDS011;1466;48.778;9.166;2022-11-11T07:38:51;23.77;;;9.60;;
2912;SDS011;1466;48.778;9.166;2022-11-11T07:41:16;21.00;;;9.50;;
2912;SDS011;1466;48.778;9.166;2022-11-11T07:43:42;21.30;;;8.73;;
2912;SDS011;1466;48.778;9.166;2022-11-11T07:46:07;27.70;;;9.20;;
2912;SDS011;1466;48.778;9.166;2022-11-11T07:48:33;24.17;;;9.13;;
2912;SDS011;1466;48.778;9.166;2022-11-11T07:50:58;25.03;;;9.03;;
2912;SDS011;1466;48.778;9.166;2022-11-11T07:53:24;22.67;;;8.67;;
2912;SDS011;1466;48.778;9.166;2022-11-11T07:55:52;28.25;;;9.73;;
2912;SDS011;1466;48.778;9.166;2022-11-11T07:58:18;38.95;;;11.57;;
2912;SDS011;1466;48.778;9.166;2022-11-11T08:00:43;23.17;;;9.30;;
2912;SDS011;1466;48.778;9.166;2022-11-11T08:03:09;25.37;;;8.80;;
2912;SDS011;1466;48.778;9.166;2022-11-11T08:05:35;24.63;;;8.47;;
2912;SDS011;1466;48.778;9.166;2022-11-11T08:08:07;27.00;;;9.87;;
2912;SDS011;1466;48.778;9.166;2022-11-11T08:10:34;20.00;;;7.57;;
2912;SDS011;1466;48.778;9.166;2022-11-11T08:13:00;21.08;;;8.07;;
2912;SDS011;1466;48.778;9.166;2022-11-11T08:15:45;23.27;;;8.52;;
2912;SDS011;1466;48.778;9.166;2022-11-11T08:18:10;16.47;;;7.70;;
2912;SDS011;1466;48.778;9.166;2022-11-11T08:20:36;17.00;;;7.83;;
2912;SDS011;1466;48.778;9.166;2022-11-11T08:23:02;19.55;;;7.95;;
2912;SDS011;1466;48.778;9.166;2022-11-11T08:25:29;22.02;;;8.10;;
2912;SDS011;1466;48.778;9.166;2022-11-11T08:27:56;28.15;;;9.75;;
2912;SDS011;1466;48.778;9.166;2022-11-11T08:30:22;27.33;;;9.07;;
2912;SDS011;1466;48.778;9.166;2022-11-11T08:32:47;27.07;;;9.60;;
2912;SDS011;1466;48.778;9.166;2022-11-11T08:35:20;21.08;;;8.15;;
2912;SDS011;1466;48.778;9.166;2022-11-11T08:37:45;20.50;;;7.50;;
2912;SDS011;1466;48.778;9.166;2022-11-11T08:40:11;27.20;;;9.27;;
2912;SDS011;1466;48.778;9.166;2022-11-11T08:42:37;28.40;;;8.40;;
2912;SDS011;1466;48.778;9.166;2022-11-11T08:45:02;11.00;;;6.70;;
2912;SDS011;1466;48.778;9.166;2022-11-11T08:47:28;20.17;;;8.17;;
2912;SDS011;1466;48.778;9.166;2022-11-11T08:49:54;17.40;;;8.27;;
2912;SDS011;1466;48.778;9.166;2022-11-11T08:52:19;23.47;;;9.00;;
2912;SDS011;1466;48.778;9.166;2022-11-11T08:54:45;21.67;;;8.10;;
2912;SDS011;1466;48.778;9.166;2022-11-11T08:57:10;21.50;;;7.87;;
2912;SDS011;1466;48.778;9.166;2022-11-11T08:59:36;13.63;;;7.50;;
2912;SDS011;1466;48.778;9.166;2022-11-11T09:02:02;13.60;;;6.60;;
2912;SDS011;1466;48.778;9.166;2022-11-11T09:04:27;15.77;;;6.53;;
2912;SDS011;1466;48.778;9.166;2022-11-11T09:06:53;22.60;;;8.67;;
2912;SDS011;1466;48.778;9.166;2022-11-11T09:09:18;17.20;;;8.60;;
2912;SDS011;1466;48.778;9.166;2022-11-11T09:11:44;20.50;;;9.03;;
2912;SDS011;1466;48.778;9.166;2022-11-11T09:14:09;26.23;;;8.87;;
2912;SDS011;1466;48.778;9.166;2022-11-11T09:16:35;23.80;;;8.50;;
2912;SDS011;1466;48.778;9.166;2022-11-11T09:19:01;16.93;;;8.00;;
2912;SDS011;1466;48.778;9.166;2022-11-11T09:21:26;19.10;;;7.90;;
2912;SDS011;1466;48.778;9.166;2022-11-11T09:23:52;40.53;;;11.93;;
2912;SDS011;1466;48.778;9.166;2022-11-11T09:26:17;20.90;;;8.47;;
2912;SDS011;1466;48.778;9.166;2022-11-11T09:28:43;24.27;;;8.73;;
2912;SDS011;1466;48.778;9.166;2022-11-11T09:31:09;20.55;;;9.00;;
2912;SDS011;1466;48.778;9.166;2022-11-11T09:33:34;18.87;;;9.03;;
2912;SDS011;1466;48.778;9.166;2022-11-11T09:36:00;19.20;;;8.67;;
2912;SDS011;1466;48.778;9.166;2022-11-11T09:38:26;18.83;;;9.20;;
2912;SDS011;1466;48.778;9.166;2022-11-11T09:41:00;27.17;;;10.33;;
2912;SDS011;1466;48.778;9.166;2022-11-11T09:46:28;20.83;;;9.48;;
2912;SDS011;1466;48.778;9.166;2022-11-11T09:51:42;18.55;;;7.97;;
2912;SDS011;1466;48.778;9.166;2022-11-11T09:54:36;17.38;;;7.90;;
2912;SDS011;1466;48.778;9.166;2022-11-11T09:57:18;34.20;;;10.52;;
2912;SDS011;1466;48.778;9.166;2022-11-11T10:00:09;18.80;;;9.30;;
2912;SDS011;1466;48.778;9.166;2022-11-11T10:02:51;20.10;;;9.40;;
2912;SDS011;1466;48.778;9.166;2022-11-11T10:08:10;26.92;;;10.68;;
2912;SDS011;1466;48.778;9.166;2022-11-11T10:10:54;28.63;;;8.50;;
2912;SDS011;1466;48.778;9.166;2022-11-11T10:13:27;33.35;;;10.60;;
2912;SDS011;1466;48.778;9.166;2022-11-11T10:21:22;30.70;;;11.35;;
2912;SDS011;1466;48.778;9.166;2022-11-11T10:23:58;25.80;;;10.10;;
2912;SDS011;1466;48.778;9.166;2022-11-11T10:28:51;20.73;;;8.97;;
2912;SDS011;1466;48.778;9.166;2022-11-11T10:31:18;21.95;;;9.20;;
2912;SDS011;1466;48.778;9.166;2022-11-11T10:36:29;19.02;;;8.07;;
2912;SDS011;1466;48.778;9.166;2022-11-11T10:38:59;14.98;;;8.18;;
2912;SDS011;1466;48.778;9.166;2022-11-11T10:41:47;20.05;;;8.93;;
2912;SDS011;1466;48.778;9.166;2022-11-11T10:44:17;19.10;;;9.85;;
2912;SDS011;1466;48.778;9.166;2022-11-11T10:46:43;15.00;;;8.43;;
2912;SDS011;1466;48.778;9.166;2022-11-11T10:49:17;30.77;;;9.90;;
2912;SDS011;1466;48.778;9.166;2022-11-11T10:51:50;23.20;;;9.30;;
2912;SDS011;1466;48.778;9.166;2022-11-11T10:54:36;36.03;;;11.73;;
2912;SDS011;1466;48.778;9.166;2022-11-11T10:57:22;13.82;;;8.10;;
2912;SDS011;1466;48.778;9.166;2022-11-11T10:59:56;13.68;;;8.15;;
2912;SDS011;1466;48.778;9.166;2022-11-11T11:05:08;19.42;;;8.95;;
2912;SDS011;1466;48.778;9.166;2022-11-11T11:08:02;18.20;;;8.95;;
2912;SDS011;1466;48.778;9.166;2022-11-11T11:10:34;18.60;;;8.65;;
2912;SDS011;1466;48.778;9.166;2022-11-11T11:13:10;23.60;;;9.13;;
2912;SDS011;1466;48.778;9.166;2022-11-11T11:15:41;14.27;;;8.65;;
2912;SDS011;1466;48.778;9.166;2022-11-11T11:18:14;14.77;;;8.07;;
2912;SDS011;1466;48.778;9.166;2022-11-11T11:23:34;14.38;;;8.18;;
2912;SDS011;1466;48.778;9.166;2022-11-11T11:26:02;19.15;;;10.10;;
2912;SDS011;1466;48.778;9.166;2022-11-11T11:28:29;24.35;;;8.80;;
2912;SDS011;1466;48.778;9.166;2022-11-11T11:30:59;16.95;;;8.10;;
2912;SDS011;1466;48.778;9.166;2022-11-11T11:33:25;44.58;;;11.18;;
2912;SDS011;1466;48.778;9.166;2022-11-11T11:35:50;13.00;;;8.37;;
2912;SDS011;1466;48.778;9.166;2022-11-11T11:38:16;21.93;;;9.40;;
2912;SDS011;1466;48.778;9.166;2022-11-11T11:43:39;17.58;;;8.13;;
2912;SDS011;1466;48.778;9.166;2022-11-11T11:51:31;21.17;;;8.98;;
2912;SDS011;1466;48.778;9.166;2022-11-11T11:56:45;23.85;;;9.10;;
2912;SDS011;1466;48.778;9.166;2022-11-11T11:59:20;26.45;;;9.02;;
2912;SDS011;1466;48.778;9.166;2022-11-11T12:12:58;15.25;;;8.20;;
2912;SDS011;1466;48.778;9.166;2022-11-11T12:20:24;21.00;;;8.45;;
2912;SDS011;1466;48.778;9.166;2022-11-11T12:25:22;22.17;;;9.40;;
2912;SDS011;1466;48.778;9.166;2022-11-11T12:31:16;19.85;;;9.13;;
2912;SDS011;1466;48.778;9.166;2022-11-11T12:36:40;16.27;;;8.57;;
2912;SDS011;1466;48.778;9.166;2022-11-11T12:39:49;20.83;;;9.38;;
2912;SDS011;1466;48.778;9.166;2022-11-11T12:50:16;21.05;;;10.10;;
2912;SDS011;1466;48.778;9.166;2022-11-11T13:15:25;17.38;;;8.60;;
2912;SDS011;1466;48.778;9.166;2022-11-11T13:17:51;26.13;;;10.25;;
2912;SDS011;1466;48.778;9.166;2022-11-11T13:23:08;37.95;;;11.43;;
2912;SDS011;1466;48.778;9.166;2022-11-11T13:25:35;14.50;;;8.57;;
2912;SDS011;1466;48.778;9.166;2022-11-11T13:30:55;15.80;;;7.32;;
2912;SDS011;1466;48.778;9.166;2022-11-11T13:33:34;14.38;;;7.40;;
2912;SDS011;1466;48.778;9.166;2022-11-11T13:36:06;18.90;;;8.50;;
2912;SDS011;1466;48.778;9.166;2022-11-11T13:38:43;12.65;;;7.05;;
2912;SDS011;1466;48.778;9.166;2022-11-11T13:41:11;17.30;;;7.72;;
2912;SDS011;1466;48.778;9.166;2022-11-11T13:43:45;19.17;;;7.57;;
2912;SDS011;1466;48.778;9.166;2022-11-11T13:46:30;12.95;;;6.60;;
2912;SDS011;1466;48.778;9.166;2022-11-11T13:49:04;13.13;;;7.10;;
2912;SDS011;1466;48.778;9.166;2022-11-11T13:52:01;16.63;;;7.97;;
2912;SDS011;1466;48.778;9.166;2022-11-11T13:54:46;15.55;;;7.82;;
2912;SDS011;1466;48.778;9.166;2022-11-11T13:57:19;14.55;;;7.72;;
2912;SDS011;1466;48.778;9.166;2022-11-11T14:00:00;17.40;;;7.70;;
2912;SDS011;1466;48.778;9.166;2022-11-11T14:12:41;15.90;;;7.65;;
2912;SDS011;1466;48.778;9.166;2022-11-11T14:17:58;16.05;;;7.25;;
2912;SDS011;1466;48.778;9.166;2022-11-11T14:23:23;15.80;;;7.68;;
2912;SDS011;1466;48.778;9.166;2022-11-11T14:28:40;31.95;;;8.82;;
2912;SDS011;1466;48.778;9.166;2022-11-11T14:36:48;10.38;;;6.97;;
2912;SDS011;1466;48.778;9.166;2022-11-11T14:47:54;17.63;;;7.72;;
2912;SDS011;1466;48.778;9.166;2022-11-11T14:52:52;38.47;;;11.00;;
2912;SDS011;1466;48.778;9.166;2022-11-11T14:55:22;15.68;;;7.55;;
2912;SDS011;1466;48.778;9.166;2022-11-11T14:58:09;20.05;;;8.43;;
2912;SDS011;1466;48.778;9.166;2022-11-11T15:00:52;12.32;;;6.63;;
2912;SDS011;1466;48.778;9.166;2022-11-11T15:03:36;17.67;;;8.15;;
2912;SDS011;1466;48.778;9.166;2022-11-11T15:06:04;14.52;;;6.50;;
2912;SDS011;1466;48.778;9.166;2022-11-11T15:14:11;14.00;;;7.07;;
2912;SDS011;1466;48.778;9.166;2022-11-11T15:28:02;19.50;;;7.85;;
2912;SDS011;1466;48.778;9.166;2022-11-11T15:33:25;18.27;;;8.05;;
2912;SDS011;1466;48.778;9.166;2022-11-11T15:36:08;14.38;;;7.70;;
2912;SDS011;1466;48.778;9.166;2022-11-11T15:38:39;27.42;;;9.02;;
2912;SDS011;1466;48.778;9.166;2022-11-11T15:41:10;16.90;;;8.05;;
2912;SDS011;1466;48.778;9.166;2022-11-11T15:43:50;12.13;;;7.72;;
2912;SDS011;1466;48.778;9.166;2022-11-11T15:46:21;16.63;;;8.00;;
2912;SDS011;1466;48.778;9.166;2022-11-11T15:48:51;20.27;;;8.82;;
2912;SDS011;1466;48.778;9.166;2022-11-11T15:53:45;19.38;;;8.88;;
2912;SDS011;1466;48.778;9.166;2022-11-11T15:56:28;21.23;;;8.90;;
2912;SDS011;1466;48.778;9.166;2022-11-11T15:58:55;19.40;;;9.43;;
2912;SDS011;1466;48.778;9.166;2022-11-11T16:01:24;24.60;;;9.67;;
2912;SDS011;1466;48.778;9.166;2022-11-11T16:03:52;27.83;;;10.32;;
2912;SDS011;1466;48.778;9.166;2022-11-11T16:06:18;17.75;;;8.70;;
2912;SDS011;1466;48.778;9.166;2022-11-11T16:08:45;19.90;;;9.03;;
2912;SDS011;1466;48.778;9.166;2022-11-11T16:11:14;46.00;;;13.63;;
2912;SDS011;1466;48.778;9.166;2022-11-11T16:14:16;18.38;;;10.70;;
2912;SDS011;1466;48.778;9.166;2022-11-11T16:16:40;28.48;;;10.00;;
2912;SDS011;1466;48.778;9.166;2022-11-11T16:19:20;20.02;;;9.50;;
2912;SDS011;1466;48.778;9.166;2022-11-11T16:24:46;20.83;;;9.73;;
2912;SDS011;1466;48.778;9.166;2022-11-11T16:27:17;20.10;;;8.75;;
2912;SDS011;1466;48.778;9.166;2022-11-11T16:29:45;17.15;;;8.95;;
2912;SDS011;1466;48.778;9.166;2022-11-11T16:34:48;29.90;;;11.05;;
2912;SDS011;1466;48.778;9.166;2022-11-11T16:37:16;18.60;;;10.18;;
2912;SDS011;1466;48.778;9.166;2022-11-11T16:39:42;27.25;;;10.82;;
2912;SDS011;1466;48.778;9.166;2022-11-11T16:52:40;21.67;;;10.73;;
2912;SDS011;1466;48.778;9.166;2022-11-11T16:58:03;19.80;;;9.45;;
2912;SDS011;1466;48.778;9.166;2022-11-11T17:00:35;16.77;;;9.93;;
2912;SDS011;1466;48.778;9.166;2022-11-11T17:05:48;14.05;;;8.63;;
2912;SDS011;1466;48.778;9.166;2022-11-11T17:11:08;26.83;;;9.55;;
2912;SDS011;1466;48.778;9.166;2022-11-11T17:13:52;26.67;;;10.50;;
2912;SDS011;1466;48.778;9.166;2022-11-11T17:16:18;20.77;;;10.13;;
2912;SDS011;1466;48.778;9.166;2022-11-11T17:18:43;21.93;;;10.10;;
2912;SDS011;1466;48.778;9.166;2022-11-11T17:21:09;21.80;;;10.37;;
2912;SDS011;1466;48.778;9.166;2022-11-11T17:23:36;24.40;;;10.10;;
2912;SDS011;1466;48.778;9.166;2022-11-11T17:26:02;16.23;;;9.40;;
2912;SDS011;1466;48.778;9.166;2022-11-11T17:28:31;25.70;;;11.03;;
2912;SDS011;1466;48.778;9.166;2022-11-11T17:31:02;25.80;;;11.13;;
2912;SDS011;1466;48.778;9.166;2022-11-11T17:33:28;23.38;;;10.82;;
2912;SDS011;1466;48.778;9.166;2022-11-11T17:35:53;26.00;;;10.83;;
2912;SDS011;1466;48.778;9.166;2022-11-11T17:38:21;31.23;;;11.05;;
2912;SDS011;1466;48.778;9.166;2022-11-11T17:40:48;32.10;;;11.33;;
2912;SDS011;1466;48.778;9.166;2022-11-11T17:43:14;24.17;;;11.73;;
2912;SDS011;1466;48.778;9.166;2022-11-11T17:45:40;26.52;;;11.73;;
2912;SDS011;1466;48.778;9.166;2022-11-11T17:48:06;28.52;;;14.18;;
2912;SDS011;1466;48.778;9.166;2022-11-11T17:50:32;32.28;;;15.00;;
2912;SDS011;1466;48.778;9.166;2022-11-11T17:53:00;36.13;;;13.15;;
2912;SDS011;1466;48.778;9.166;2022-11-11T17:55:26;22.85;;;11.50;;
2912;SDS011;1466;48.778;9.166;2022-11-11T17:57:52;26.93;;;13.37;;
2912;SDS011;1466;48.778;9.166;2022-11-11T18:00:18;24.73;;;12.60;;
2912;SDS011;1466;48.778;9.166;2022-11-11T18:02:44;23.53;;;11.37;;
2912;SDS011;1466;48.778;9.166;2022-11-11T18:05:09;23.13;;;10.83;;
2912;SDS011;1466;48.778;9.166;2022-11-11T18:07:35;26.03;;;11.90;;
2912;SDS011;1466;48.778;9.166;2022-11-11T18:10:00;19.40;;;10.37;;
2912;SDS011;1466;48.778;9.166;2022-11-11T18:12:27;19.20;;;10.53;;
2912;SDS011;1466;48.778;9.166;2022-11-11T18:14:53;20.42;;;9.32;;
2912;SDS011;1466;48.778;9.166;2022-11-11T18:17:18;21.63;;;11.50;;
2912;SDS011;1466;48.778;9.166;2022-11-11T18:19:44;21.87;;;12.20;;
2912;SDS011;1466;48.778;9.166;2022-11-11T18:22:09;26.17;;;12.20;;
2912;SDS011;1466;48.778;9.166;2022-11-11T18:24:35;23.87;;;10.70;;
2912;SDS011;1466;48.778;9.166;2022-11-11T18:27:01;24.07;;;11.27;;
2912;SDS011;1466;48.778;9.166;2022-11-11T18:29:26;25.10;;;12.20;;